createdAt,value
2019-04-11T00:04:40.153Z,7.90
2019-04-11T00:07:30.156Z,7.88
2019-04-11T00:10:17.228Z,7.88
2019-04-11T00:13:17.295Z,7.87
2019-04-11T00:15:51.491Z,7.82
2019-04-11T00:18:41.262Z,7.63
2019-04-11T00:21:30.969Z,7.77
2019-04-11T00:24:14.463Z,7.77
2019-04-11T00:30:15.591Z,7.73
2019-04-11T00:32:58.594Z,7.71
2019-04-11T00:35:48.678Z,7.71
2019-04-11T00:38:38.417Z,7.72
2019-04-11T00:41:23.845Z,7.73
2019-04-11T00:44:27.121Z,7.72
2019-04-11T00:47:09.244Z,7.72
2019-04-11T00:49:59.074Z,7.69
2019-04-11T00:52:49.637Z,7.69
2019-04-11T00:55:33.613Z,7.69
2019-04-11T00:58:23.538Z,7.73
2019-04-11T01:01:13.717Z,7.69
2019-04-11T01:10:01.071Z,7.72
2019-04-11T01:12:51.310Z,7.71
2019-04-11T01:15:35.031Z,7.71
2019-04-11T01:18:25.729Z,7.73
2019-04-11T01:21:10.320Z,7.56
2019-04-11T01:24:00.114Z,7.70
2019-04-11T01:27:01.759Z,7.66
2019-04-11T01:29:45.084Z,7.74
2019-04-11T01:32:35.036Z,7.72
2019-04-11T01:35:25.494Z,7.65
2019-04-11T01:38:10.259Z,7.50
2019-04-11T01:41:00.319Z,7.67
2019-04-11T01:43:56.415Z,7.64
2019-04-11T01:46:34.731Z,7.59
2019-04-11T01:49:24.490Z,7.59
2019-04-11T01:52:16.384Z,7.53
2019-04-11T01:55:06.246Z,7.60
2019-04-11T02:07:14.285Z,7.61
2019-04-11T02:10:04.333Z,7.63
2019-04-11T02:12:49.795Z,7.58
2019-04-11T02:15:40.739Z,7.59
2019-04-11T02:18:23.550Z,7.56
2019-04-11T02:21:13.629Z,7.55
2019-04-11T02:24:17.428Z,7.51
2019-04-11T02:30:05.875Z,7.49
2019-04-11T02:33:16.390Z,7.50
2019-04-11T02:36:00.814Z,7.52
2019-04-11T02:38:55.355Z,7.50
2019-04-11T02:41:35.915Z,7.50
2019-04-11T02:44:40.521Z,7.51
2019-04-11T02:47:17.437Z,7.53
2019-04-11T02:50:03.566Z,7.53
2019-04-11T02:52:47.382Z,7.54
2019-04-11T02:55:37.862Z,7.54
2019-04-11T02:58:23.137Z,7.54
2019-04-11T03:01:13.447Z,7.49
2019-04-11T03:04:04.908Z,7.56
2019-04-11T03:06:48.007Z,7.48
2019-04-11T03:09:39.344Z,7.50
2019-04-11T03:12:24.008Z,7.54
2019-04-11T03:15:29.920Z,7.43
2019-04-11T03:18:01.846Z,7.46
2019-04-11T03:20:56.170Z,7.50
2019-04-11T03:23:33.293Z,7.51
2019-04-11T03:26:25.051Z,7.28
2019-04-11T03:29:10.739Z,7.45
2019-04-11T03:32:40.130Z,7.39
2019-04-11T03:37:58.694Z,7.12
2019-04-11T03:40:43.168Z,7.31
2019-04-11T03:43:24.228Z,7.28
2019-04-11T03:46:20.190Z,7.19
2019-04-11T03:48:55.860Z,7.16
2019-04-11T03:51:38.669Z,7.05
2019-04-11T03:54:21.215Z,7.16
2019-04-11T03:57:13.228Z,7.20
2019-04-11T03:59:56.574Z,7.21
2019-04-11T04:02:28.329Z,7.23
2019-04-11T04:05:17.610Z,7.22
2019-04-11T04:08:08.772Z,7.18
2019-04-11T04:11:12.360Z,7.14
2019-04-11T04:14:21.468Z,7.15
2019-04-11T04:17:28.649Z,7.17
2019-04-11T04:20:37.299Z,7.15
2019-04-11T04:26:25.186Z,7.24
2019-04-11T04:29:15.466Z,7.12
2019-04-11T04:31:59.598Z,7.21
2019-04-11T04:34:50.826Z,7.20
2019-04-11T04:37:34.668Z,7.10
2019-04-11T04:41:00.714Z,7.12
2019-04-11T04:43:30.115Z,7.10
2019-04-11T04:46:34.853Z,7.09
2019-04-11T04:49:06.758Z,7.13
2019-04-11T04:51:56.963Z,7.14
2019-04-11T04:54:41.214Z,7.14
2019-04-11T04:57:31.817Z,7.14
2019-04-11T05:00:15.068Z,7.15
2019-04-11T05:03:05.587Z,7.12
2019-04-11T05:05:51.035Z,7.08
2019-04-11T05:08:41.238Z,7.07
2019-04-11T05:11:23.444Z,7.05
2019-04-11T05:17:14.963Z,7.07
2019-04-11T05:20:05.158Z,7.05
2019-04-11T05:22:55.881Z,7.08
2019-04-11T05:25:39.057Z,7.04
2019-04-11T05:28:31.848Z,6.96
2019-04-11T05:31:15.140Z,6.91
2019-04-11T05:34:05.070Z,6.99
2019-04-11T05:36:47.592Z,6.92
2019-04-11T05:39:38.095Z,6.95
2019-04-11T05:42:25.237Z,6.91
2019-04-11T05:45:18.274Z,6.98
2019-04-11T05:48:01.103Z,6.98
2019-04-11T05:50:52.676Z,6.96
2019-04-11T05:53:36.554Z,6.95
2019-04-11T05:56:31.208Z,7.02
2019-04-11T05:59:17.273Z,7.03
2019-04-11T06:02:26.839Z,7.00
2019-04-11T06:05:17.256Z,6.97
2019-04-11T06:08:09.843Z,7.01
2019-04-11T06:11:01.366Z,6.97
2019-04-11T06:13:56.526Z,6.83
2019-04-11T06:16:46.211Z,6.88
2019-04-11T06:19:35.475Z,6.96
2019-04-11T06:22:19.862Z,6.94
2019-04-11T06:25:30.369Z,6.78
2019-04-11T06:28:31.561Z,6.91
2019-04-11T06:31:40.402Z,6.91
2019-04-11T06:34:31.476Z,6.88
2019-04-11T06:37:36.132Z,6.73
2019-04-11T06:43:50.041Z,6.83
2019-04-11T06:49:53.013Z,6.86
2019-04-11T06:52:43.391Z,6.89
2019-04-11T06:55:44.749Z,6.87
2019-04-11T06:58:39.535Z,6.90
2019-04-11T07:01:25.758Z,6.89
2019-04-11T07:04:20.288Z,6.83
2019-04-11T07:07:04.771Z,6.93
2019-04-11T07:10:13.779Z,6.92
2019-04-11T07:13:22.724Z,6.94
2019-04-11T07:16:13.350Z,7.11
2019-04-11T07:19:13.486Z,7.13
2019-04-11T07:22:23.647Z,7.14
2019-04-11T07:25:25.351Z,6.83
2019-04-11T07:28:34.369Z,6.96
2019-04-11T07:31:40.905Z,6.92
2019-04-11T07:34:43.667Z,6.90
2019-04-11T07:37:30.484Z,6.97
2019-04-11T07:40:39.598Z,7.00
2019-04-11T07:43:36.445Z,7.03
2019-04-11T07:46:38.673Z,7.10
2019-04-11T07:49:33.550Z,7.13
2019-04-11T07:52:23.357Z,7.18
2019-04-11T07:55:13.238Z,7.10
2019-04-11T07:58:21.940Z,6.84
2019-04-11T08:01:30.574Z,6.97
2019-04-11T08:04:58.222Z,7.11
2019-04-11T08:07:59.466Z,6.93
2019-04-11T08:14:18.313Z,6.97
2019-04-11T08:17:27.992Z,6.98
2019-04-11T08:20:29.774Z,7.07
2019-04-11T08:23:40.185Z,7.10
2019-04-11T08:26:48.784Z,7.22
2019-04-11T08:29:38.749Z,7.27
2019-04-11T08:32:47.436Z,7.26
2019-04-11T08:35:57.990Z,7.20
2019-04-11T08:38:40.489Z,7.23
2019-04-11T08:41:49.627Z,7.16
2019-04-11T08:44:41.831Z,7.00
2019-04-11T08:47:25.102Z,7.10
2019-04-11T08:50:18.509Z,7.18
2019-04-11T08:53:26.854Z,7.21
2019-04-11T08:56:10.491Z,7.18
2019-04-11T08:59:38.302Z,7.32
2019-04-11T09:08:44.827Z,7.22
2019-04-11T09:11:54.112Z,7.25
2019-04-11T09:14:56.785Z,7.18
2019-04-11T09:18:11.028Z,7.40
2019-04-11T09:21:16.008Z,7.34
2019-04-11T09:24:12.479Z,7.32
2019-04-11T09:27:14.295Z,7.03
2019-04-11T09:30:10.400Z,6.93
2019-04-11T09:33:15.085Z,7.09
2019-04-11T09:36:25.973Z,7.14
2019-04-11T09:42:38.688Z,7.12
2019-04-11T09:45:40.090Z,7.11
2019-04-11T09:49:04.818Z,6.94
2019-04-11T09:52:07.257Z,7.20
2019-04-11T09:55:16.865Z,7.22
2019-04-11T09:58:01.203Z,7.17
2019-04-11T10:01:10.685Z,7.19
2019-04-11T10:03:55.088Z,7.43
2019-04-11T10:06:59.155Z,7.34
2019-04-11T10:09:55.398Z,7.43
2019-04-11T10:13:06.693Z,7.39
2019-04-11T10:16:09.667Z,7.46
2019-04-11T10:19:05.508Z,7.92
2019-04-11T10:21:54.359Z,7.81
2019-04-11T10:25:05.176Z,7.88
2019-04-11T10:28:11.746Z,7.95
2019-04-11T10:31:06.241Z,8.18
2019-04-11T10:34:09.164Z,8.07
2019-04-11T10:37:17.934Z,7.95
2019-04-11T10:40:24.045Z,8.10
2019-04-11T10:43:13.945Z,7.95
2019-04-11T10:46:11.749Z,8.25
2019-04-11T10:49:03.900Z,8.10
2019-04-11T10:52:12.700Z,8.13
2019-04-11T10:55:18.213Z,7.97
2019-04-11T10:58:03.124Z,7.98
2019-04-11T11:01:31.727Z,8.02
2019-04-11T11:04:37.191Z,8.25
2019-04-11T11:07:22.793Z,8.22
2019-04-11T11:10:15.715Z,8.24
2019-04-11T11:13:24.305Z,8.41
2019-04-11T11:16:14.099Z,8.40
2019-04-11T11:19:40.292Z,8.38
2019-04-11T11:22:25.389Z,8.35
2019-04-11T11:28:00.225Z,8.64
2019-04-11T11:31:03.580Z,8.75
2019-04-11T11:34:19.924Z,8.95
2019-04-11T11:37:26.042Z,8.78
2019-04-11T11:40:38.451Z,8.91
2019-04-11T11:43:27.455Z,9.07
2019-04-11T11:46:36.412Z,9.28
2019-04-11T11:49:41.787Z,9.12
2019-04-11T11:52:34.545Z,9.31
2019-04-11T11:55:21.466Z,9.30
2019-04-11T11:58:25.772Z,9.41
2019-04-11T12:01:09.483Z,9.29
2019-04-11T12:04:19.075Z,9.14
2019-04-11T12:07:05.998Z,9.34
2019-04-11T12:10:15.285Z,9.47
2019-04-11T12:13:17.168Z,9.33
2019-04-11T12:16:25.981Z,9.11
2019-04-11T12:22:20.207Z,9.11
2019-04-11T12:25:16.589Z,8.96
2019-04-11T12:28:19.602Z,9.08
2019-04-11T12:31:10.481Z,9.27
2019-04-11T12:34:12.359Z,9.32
2019-04-11T12:36:56.962Z,9.37
2019-04-11T12:40:05.588Z,9.23
2019-04-11T12:42:59.618Z,9.23
2019-04-11T12:46:08.398Z,9.28
2019-04-11T12:49:03.907Z,9.47
2019-04-11T12:52:12.528Z,9.46
2019-04-11T12:55:02.323Z,9.52
2019-04-11T12:58:03.272Z,9.57
2019-04-11T13:01:30.894Z,9.63
2019-04-11T13:04:32.946Z,9.61
2019-04-11T13:07:41.470Z,9.71
2019-04-11T13:10:26.870Z,9.82
2019-04-11T13:13:35.406Z,9.77
2019-04-11T13:16:17.846Z,9.59
2019-04-11T13:19:26.420Z,9.81
2019-04-11T13:22:13.768Z,9.85
2019-04-11T13:25:22.290Z,9.86
2019-04-11T13:28:04.735Z,9.97
2019-04-11T13:31:13.372Z,10.11
2019-04-11T13:34:16.006Z,10.13
2019-04-11T13:37:18.437Z,10.04
2019-04-11T13:40:27.243Z,10.12
2019-04-11T13:43:22.770Z,10.25
2019-04-11T13:46:31.347Z,10.35
2019-04-11T13:49:25.703Z,10.20
2019-04-11T13:52:34.279Z,9.93
2019-04-11T13:55:33.812Z,10.00
2019-04-11T14:01:10.073Z,9.83
2019-04-11T14:04:02.869Z,9.84
2019-04-11T14:06:53.324Z,9.88
2019-04-11T14:09:46.083Z,9.86
2019-04-11T14:12:35.876Z,10.13
2019-04-11T14:15:25.661Z,10.19
2019-04-11T14:18:27.126Z,10.17
2019-04-11T14:21:19.313Z,10.15
2019-04-11T14:24:27.899Z,10.20
2019-04-11T14:30:24.429Z,10.21
2019-04-11T14:33:15.338Z,10.46
2019-04-11T14:36:17.833Z,10.34
2019-04-11T14:42:24.056Z,10.27
2019-04-11T14:45:36.297Z,10.25
2019-04-11T14:48:37.855Z,10.10
2019-04-11T14:51:47.893Z,10.20
2019-04-11T14:54:40.476Z,10.30
2019-04-11T14:57:49.119Z,10.45
2019-04-11T15:03:37.742Z,10.39
2019-04-11T15:06:31.799Z,10.33
2019-04-11T15:09:33.051Z,10.21
2019-04-11T15:12:24.996Z,10.16
2019-04-11T15:15:26.213Z,10.09
2019-04-11T15:18:17.429Z,10.15
2019-04-11T15:21:26.097Z,10.12
2019-04-11T15:23:56.921Z,10.21
2019-04-11T15:27:06.590Z,10.17
2019-04-11T15:29:58.583Z,10.10
2019-04-11T15:32:59.407Z,10.12
2019-04-11T15:35:49.280Z,9.97
2019-04-11T15:38:45.725Z,9.93
2019-04-11T15:41:35.486Z,9.89
2019-04-11T15:44:36.706Z,9.86
2019-04-11T15:47:26.536Z,9.88
2019-04-11T15:50:30.638Z,9.94
2019-04-11T15:56:32.322Z,9.88
2019-04-11T15:59:43.798Z,9.83
2019-04-11T16:06:12.031Z,9.83
2019-04-11T16:08:57.199Z,9.87
2019-04-11T16:11:54.813Z,9.83
2019-04-11T16:14:38.996Z,9.63
2019-04-11T16:17:47.680Z,9.89
2019-04-11T16:20:37.510Z,9.81
2019-04-11T16:23:46.315Z,9.93
2019-04-11T16:26:38.776Z,9.85
2019-04-11T16:29:38.984Z,9.80
2019-04-11T16:35:26.063Z,9.75
2019-04-11T16:38:19.106Z,9.70
2019-04-11T16:41:23.726Z,9.71
2019-04-11T16:44:18.147Z,9.54
2019-04-11T16:47:20.616Z,9.56
2019-04-11T16:53:14.888Z,9.51
2019-04-11T16:56:01.980Z,9.46
2019-04-11T17:01:42.143Z,9.27
2019-04-11T17:04:26.083Z,9.27
2019-04-11T17:07:35.202Z,9.08
2019-04-11T17:10:43.847Z,9.08
2019-04-11T17:13:14.995Z,8.98
2019-04-11T17:19:06.265Z,9.04
2019-04-11T17:21:56.064Z,9.06
2019-04-11T17:24:47.953Z,8.99
2019-04-11T17:27:30.486Z,9.01
2019-04-11T17:30:20.302Z,9.01
2019-04-11T17:33:30.680Z,8.99
2019-04-11T17:36:15.287Z,8.96
2019-04-11T17:38:45.988Z,8.82
2019-04-11T17:41:16.719Z,8.95
2019-04-11T17:44:06.497Z,8.93
2019-04-11T17:46:56.871Z,8.90
2019-04-11T17:49:40.393Z,8.91
2019-04-11T17:55:31.713Z,8.93
2019-04-11T17:58:21.474Z,8.93
2019-04-11T18:01:05.464Z,8.89
2019-04-11T18:03:55.802Z,8.90
2019-04-11T18:06:47.145Z,8.98
2019-04-11T18:09:36.651Z,8.93
2019-04-11T18:12:18.684Z,8.91
2019-04-11T18:15:08.467Z,8.75
2019-04-11T18:17:50.831Z,8.88
2019-04-11T18:20:40.777Z,8.83
2019-04-11T18:23:24.653Z,8.87
2019-04-11T18:26:14.867Z,9.00
2019-04-11T18:31:58.047Z,8.79
2019-04-11T18:34:48.018Z,8.85
2019-04-11T18:37:37.819Z,8.79
2019-04-11T18:40:27.717Z,8.60
2019-04-11T18:43:17.462Z,8.68
2019-04-11T18:46:00.096Z,8.74
2019-04-11T18:48:49.987Z,8.72
2019-04-11T18:51:58.853Z,8.76
2019-04-11T18:54:45.473Z,8.68
2019-04-11T18:57:29.733Z,8.67
2019-04-11T19:00:13.108Z,8.61
2019-04-11T19:03:02.956Z,8.52
2019-04-11T19:05:52.934Z,8.45
2019-04-11T19:08:43.338Z,8.44
2019-04-11T19:11:27.455Z,8.40
2019-04-11T19:14:17.714Z,8.36
2019-04-11T19:17:07.534Z,8.45
2019-04-11T19:19:57.290Z,8.30
2019-04-11T19:22:39.749Z,8.45
2019-04-11T19:25:31.566Z,8.52
2019-04-11T19:28:13.771Z,8.44
2019-04-11T19:31:03.688Z,8.62
2019-04-11T19:33:55.774Z,8.43
2019-04-11T19:36:45.959Z,8.41
2019-04-11T19:45:12.428Z,8.15
2019-04-11T19:48:02.249Z,8.02
2019-04-11T19:50:52.363Z,8.12
2019-04-11T19:53:42.169Z,8.09
2019-04-11T19:59:32.215Z,8.00
2019-04-11T20:05:16.746Z,7.86
2019-04-11T20:08:06.647Z,7.82
2019-04-11T20:11:09.099Z,7.83
2019-04-11T20:13:54.879Z,7.67
2019-04-11T20:16:48.900Z,7.84
2019-04-11T20:19:36.368Z,7.74
2019-04-11T20:28:14.111Z,7.61
2019-04-11T20:34:28.156Z,7.37
2019-04-11T20:40:29.766Z,7.36
2019-04-11T20:43:19.659Z,7.53
2019-04-11T20:46:01.593Z,7.62
2019-04-11T20:48:44.168Z,7.53
2019-04-11T20:51:31.613Z,7.49
2019-04-11T20:54:35.969Z,7.42
2019-04-11T20:57:11.901Z,7.26
2019-04-11T21:00:01.304Z,7.20
2019-04-11T21:02:44.252Z,7.10
2019-04-11T21:05:53.150Z,6.95
2019-04-11T21:08:36.693Z,7.01
2019-04-11T21:11:27.508Z,7.05
2019-04-11T21:14:11.745Z,7.09
2019-04-11T21:17:01.471Z,7.18
2019-04-11T21:19:43.832Z,7.22
2019-04-11T21:22:33.583Z,7.18
2019-04-11T21:25:18.078Z,7.19
2019-04-11T21:28:07.940Z,7.17
2019-04-11T21:30:50.466Z,6.90
2019-04-11T21:33:40.221Z,7.06
2019-04-11T21:36:22.673Z,6.89
2019-04-11T21:39:12.457Z,7.05
2019-04-11T21:41:54.707Z,6.96
2019-04-11T21:44:44.550Z,7.01
2019-04-11T21:50:30.635Z,6.98
2019-04-11T21:53:20.373Z,6.93
2019-04-11T21:56:02.399Z,6.89
2019-04-11T21:58:52.104Z,6.90
2019-04-11T22:01:34.680Z,6.93
2019-04-11T22:04:27.511Z,6.99
2019-04-11T22:07:00.682Z,6.97
2019-04-11T22:09:49.071Z,6.96
2019-04-11T22:12:31.565Z,6.86
2019-04-11T22:15:14.465Z,6.97
2019-04-11T22:18:04.811Z,7.00
2019-04-11T22:20:55.039Z,6.90
2019-04-11T22:23:48.961Z,6.81
2019-04-11T22:26:18.400Z,6.58
2019-04-11T22:29:08.181Z,6.62
2019-04-11T22:31:58.011Z,6.59
2019-04-11T22:34:47.590Z,6.42
2019-04-11T22:37:37.652Z,6.38
2019-04-11T22:40:20.256Z,6.20
2019-04-11T22:43:22.537Z,5.99
2019-04-11T22:45:58.136Z,5.89
2019-04-11T22:57:45.897Z,5.79
2019-04-11T23:00:36.206Z,5.79
2019-04-11T23:03:46.830Z,5.85
2019-04-11T23:09:34.533Z,5.75
2019-04-11T23:12:24.259Z,5.74
2019-04-11T23:15:07.168Z,5.73
2019-04-11T23:17:56.863Z,5.69
2019-04-11T23:20:38.947Z,5.77
2019-04-11T23:23:28.650Z,5.77
2019-04-11T23:26:11.603Z,5.84
2019-04-11T23:29:01.352Z,5.78
2019-04-11T23:31:44.073Z,5.81
2019-04-11T23:34:33.837Z,5.77
2019-04-11T23:37:16.284Z,5.95
2019-04-11T23:40:06.249Z,6.11
2019-04-11T23:42:50.130Z,6.07
2019-04-11T23:45:40.076Z,5.79
2019-04-11T23:48:24.038Z,5.64
2019-04-11T23:51:13.837Z,5.53
2019-04-11T23:53:59.007Z,5.56
2019-04-11T23:56:47.884Z,5.47
2019-04-11T23:59:32.756Z,5.44
